Time;durP1;ratioP1;P1;durP2;ratioP2;P2;SDS_P1;SDS_P2;PMS_P1;PMS_P2;Temp;Humidity;BMP_temperature;BMP_pressure;BME280_temperature;BME280_humidity;BME280_pressure;Samples;Min_cycle;Max_cycle;Signal;HPM_P1;HPM_P2
2022/03/19 00:02:07;;;;;;;;;;;;;;;17.35;33.34;103173.09;5076213;28;868;-55
2022/03/19 00:04:32;;;;;;;;;;;;;;;17.62;32.75;103167.41;5075989;28;880;-57
2022/03/19 00:06:58;;;;;;;;;;;;;;;17.64;32.99;103170.75;5076021;28;1320;-57
2022/03/19 00:09:23;;;;;;;;;;;;;;;17.27;33.56;103165.09;5077372;28;1553;-55
2022/03/19 00:11:49;;;;;;;;;;;;;;;16.94;34.18;103168.81;5095988;28;1402;-56
2022/03/19 00:14:14;;;;;;;;;;;;;;;16.98;34.24;103170.06;5096254;28;809;-57
2022/03/19 00:16:41;;;;;;;;;;;;;;;17.39;33.59;103171.59;5099412;28;1504;-57
2022/03/19 00:19:07;;;;;;;;;;;;;;;17.55;32.85;103166.63;5087208;28;1913;-57
2022/03/19 00:21:33;;;;;;;;;;;;;;;17.22;33.57;103167.66;5080130;28;805;-56
2022/03/19 00:23:58;;;;;;;;;;;;;;;17.05;33.96;103168.13;5080162;28;888;-56
2022/03/19 00:26:24;;;;;;;;;;;;;;;16.83;34.46;103163.97;5080004;28;828;-57
2022/03/19 00:28:50;;;;;;;;;;;;;;;16.88;34.19;103161.44;5080546;28;816;-56
2022/03/19 00:31:15;;;;;;;;;;;;;;;17.17;33.99;103168.31;5080254;28;906;-55
2022/03/19 00:33:41;;;;;;;;;;;;;;;17.51;33.20;103165.38;5079789;28;809;-56
2022/03/19 00:36:06;;;;;;;;;;;;;;;17.60;32.77;103153.03;5080119;28;710;-57
2022/03/19 00:38:32;;;;;;;;;;;;;;;17.57;33.15;103158.97;5079916;28;1972;-56
2022/03/19 00:40:57;;;;;;;;;;;;;;;17.36;33.44;103152.78;5079860;28;834;-56
2022/03/19 00:43:24;;;;;;;;;;;;;;;17.00;33.93;103159.72;5076062;28;1360;-55
2022/03/19 00:45:49;;;;;;;;;;;;;;;16.97;34.26;103164.81;5079114;28;899;-57
2022/03/19 00:48:15;;;;;;;;;;;;;;;17.55;33.23;103161.13;5079755;28;879;-58
2022/03/19 00:50:40;;;;;;;;;;;;;;;17.78;32.61;103157.75;5079663;28;912;-57
2022/03/19 00:53:06;;;;;;;;;;;;;;;17.51;33.05;103160.69;5079390;28;860;-57
2022/03/19 00:55:32;;;;;;;;;;;;;;;17.06;33.90;103156.09;5079817;28;828;-57
2022/03/19 00:57:57;;;;;;;;;;;;;;;16.85;34.43;103164.63;5079690;28;829;-56
2022/03/19 01:00:26;;;;;;;;;;;;;;;16.90;34.07;103154.69;5079020;28;1974;-56
2022/03/19 01:02:52;;;;;;;;;;;;;;;17.30;33.71;103155.56;5079387;28;799;-57
2022/03/19 01:05:17;;;;;;;;;;;;;;;17.47;33.19;103158.63;5079151;28;855;-57
2022/03/19 01:07:43;;;;;;;;;;;;;;;17.56;33.16;103157.31;5079808;28;851;-57
2022/03/19 01:10:09;;;;;;;;;;;;;;;17.31;33.54;103154.50;5112096;27;839;-57
2022/03/19 01:12:36;;;;;;;;;;;;;;;16.99;34.02;103149.78;5072573;28;916;-58
2022/03/19 01:15:01;;;;;;;;;;;;;;;17.00;34.18;103156.97;5098612;28;1162;-58
2022/03/19 01:17:27;;;;;;;;;;;;;;;17.42;33.45;103140.03;5089118;28;1411;-58
2022/03/19 01:19:52;;;;;;;;;;;;;;;17.69;32.71;103148.94;5080716;28;1906;-57
2022/03/19 01:22:19;;;;;;;;;;;;;;;17.27;33.58;103145.84;5098688;28;761;-58
2022/03/19 01:24:44;;;;;;;;;;;;;;;16.92;33.95;103146.22;5093622;28;1349;-58
2022/03/19 01:27:10;;;;;;;;;;;;;;;16.71;34.70;103144.59;5078583;28;774;-57
2022/03/19 01:29:35;;;;;;;;;;;;;;;16.88;34.35;103139.44;5079021;28;1152;-57
2022/03/19 01:32:01;;;;;;;;;;;;;;;17.35;33.54;103142.84;5079080;28;779;-57
2022/03/19 01:34:26;;;;;;;;;;;;;;;17.63;33.00;103141.59;5078915;28;894;-57
2022/03/19 01:36:53;;;;;;;;;;;;;;;17.14;33.70;103134.91;5079054;28;773;-58
2022/03/19 01:39:19;;;;;;;;;;;;;;;16.97;34.20;103142.81;5078668;28;1984;-58
2022/03/19 01:41:45;;;;;;;;;;;;;;;16.79;34.30;103143.50;5078279;28;880;-57
2022/03/19 01:44:16;;;;;;;;;;;;;;;16.85;34.15;103139.88;5078771;28;789;-57
2022/03/19 01:46:57;;;;;;;;;;;;;;;17.50;32.92;103133.41;5078838;28;840;-57
2022/03/19 01:49:23;;;;;;;;;;;;;;;17.27;33.45;103137.59;5078632;28;934;-58
2022/03/19 01:51:48;;;;;;;;;;;;;;;17.08;33.76;103134.75;5077497;28;825;-57
2022/03/19 01:54:14;;;;;;;;;;;;;;;16.94;34.25;103138.59;5078416;28;931;-57
2022/03/19 01:56:39;;;;;;;;;;;;;;;17.06;33.93;103141.50;5078510;28;754;-57
2022/03/19 01:59:06;;;;;;;;;;;;;;;17.28;33.49;103137.38;5111000;27;1909;-57
2022/03/19 02:01:31;;;;;;;;;;;;;;;17.50;33.22;103130.66;5078574;28;1618;-58
2022/03/19 02:03:57;;;;;;;;;;;;;;;17.02;33.81;103132.84;5088991;28;766;-57
2022/03/19 02:06:22;;;;;;;;;;;;;;;16.90;34.33;103135.47;5130673;27;732;-57
2022/03/19 02:08:48;;;;;;;;;;;;;;;16.95;34.24;103137.53;5097612;28;793;-57
2022/03/19 02:11:14;;;;;;;;;;;;;;;16.84;34.38;103136.28;5097607;28;832;-57
2022/03/19 02:13:40;;;;;;;;;;;;;;;17.43;33.09;103131.56;5083075;28;1399;-57
2022/03/19 02:16:05;;;;;;;;;;;;;;;17.19;33.59;103132.34;5078313;28;972;-57
2022/03/19 02:18:31;;;;;;;;;;;;;;;16.85;34.30;103134.41;5078204;28;1972;-57
2022/03/19 02:20:58;;;;;;;;;;;;;;;16.83;34.29;103125.50;5078155;28;856;-57
2022/03/19 02:26:08;;;;;;;;;;;;;;;17.45;33.36;103125.84;5077926;28;769;-57
2022/03/19 02:28:33;;;;;;;;;;;;;;;17.48;32.92;103132.81;5078103;28;812;-57
2022/03/19 02:30:58;;;;;;;;;;;;;;;17.08;33.57;103129.25;5077802;28;797;-57
2022/03/19 02:33:24;;;;;;;;;;;;;;;17.00;34.15;103126.75;5110264;27;887;-58
2022/03/19 02:35:49;;;;;;;;;;;;;;;17.38;33.35;103136.88;5077963;28;879;-57
2022/03/19 02:38:15;;;;;;;;;;;;;;;17.45;33.21;103123.94;5077126;28;1972;-57
2022/03/19 02:40:40;;;;;;;;;;;;;;;17.01;34.04;103125.69;5077963;28;968;-57
2022/03/19 02:43:06;;;;;;;;;;;;;;;16.87;34.36;103122.13;5077750;28;876;-57
2022/03/19 02:45:31;;;;;;;;;;;;;;;17.07;34.13;103129.47;5092549;28;915;-57
2022/03/19 02:47:57;;;;;;;;;;;;;;;17.60;33.10;103131.03;5093799;28;1050;-57
2022/03/19 02:50:22;;;;;;;;;;;;;;;17.47;33.23;103126.44;5077357;28;832;-58
2022/03/19 02:52:48;;;;;;;;;;;;;;;17.03;33.96;103126.28;5077587;28;890;-58
2022/03/19 02:55:13;;;;;;;;;;;;;;;17.08;33.91;103136.63;5077479;28;933;-57
2022/03/19 02:57:39;;;;;;;;;;;;;;;17.15;33.83;103128.34;5096541;28;860;-57
2022/03/19 03:00:05;;;;;;;;;;;;;;;17.66;32.93;103124.63;5096831;28;1913;-58
2022/03/19 03:02:30;;;;;;;;;;;;;;;17.40;33.16;103132.03;5096768;28;781;-58
2022/03/19 03:04:56;;;;;;;;;;;;;;;17.31;33.60;103138.00;5077454;28;902;-58
2022/03/19 03:07:21;;;;;;;;;;;;;;;17.14;33.92;103132.16;5077041;28;924;-58
2022/03/19 03:09:48;;;;;;;;;;;;;;;17.30;33.70;103134.38;5076892;28;833;-58
2022/03/19 03:12:13;;;;;;;;;;;;;;;17.60;33.03;103129.13;5077162;28;833;-58
2022/03/19 03:14:39;;;;;;;;;;;;;;;17.56;33.09;103124.28;5076747;28;1254;-58
2022/03/19 03:17:04;;;;;;;;;;;;;;;17.52;32.91;103118.38;5068637;28;1360;-59
2022/03/19 03:19:30;;;;;;;;;;;;;;;17.37;33.19;103115.94;5076144;28;1901;-57
2022/03/19 03:21:55;;;;;;;;;;;;;;;17.37;33.38;103121.44;5075778;28;882;-58
2022/03/19 03:24:22;;;;;;;;;;;;;;;17.41;33.32;103117.19;5076569;28;919;-58
2022/03/19 03:26:47;;;;;;;;;;;;;;;17.64;32.68;103121.25;5076461;28;1434;-58
2022/03/19 03:29:14;;;;;;;;;;;;;;;17.81;32.54;103115.19;5066408;28;814;-58
2022/03/19 03:31:39;;;;;;;;;;;;;;;17.20;33.47;103118.38;5091073;28;776;-58
2022/03/19 03:34:05;;;;;;;;;;;;;;;17.13;33.74;103122.25;5078078;28;907;-58
2022/03/19 03:36:31;;;;;;;;;;;;;;;17.02;34.00;103115.53;5076530;28;1470;-58
2022/03/19 03:38:56;;;;;;;;;;;;;;;17.18;33.68;103130.66;5076589;28;1975;-58
2022/03/19 03:41:22;;;;;;;;;;;;;;;17.58;33.04;103122.16;5076807;28;880;-57
2022/03/19 03:43:47;;;;;;;;;;;;;;;17.79;32.50;103140.19;5076727;28;909;-57
2022/03/19 03:46:13;;;;;;;;;;;;;;;17.48;32.85;103127.31;5076110;28;845;-57
2022/03/19 03:48:38;;;;;;;;;;;;;;;16.97;33.98;103137.31;5076138;28;899;-57
2022/03/19 03:51:06;;;;;;;;;;;;;;;16.92;34.11;103136.06;5076832;28;778;-57
2022/03/19 03:53:31;;;;;;;;;;;;;;;16.90;34.19;103151.94;5108911;28;872;-57
2022/03/19 03:55:57;;;;;;;;;;;;;;;17.29;33.35;103157.44;5076294;28;856;-57
2022/03/19 03:58:23;;;;;;;;;;;;;;;17.58;32.66;103160.66;5076033;28;1902;-57
2022/03/19 04:00:49;;;;;;;;;;;;;;;17.26;33.17;103160.66;5069494;28;1545;-57
2022/03/19 04:03:14;;;;;;;;;;;;;;;17.17;33.55;103165.56;5111200;28;1217;-58
2022/03/19 04:05:40;;;;;;;;;;;;;;;17.24;33.57;103166.38;5108890;28;815;-57
2022/03/19 04:08:05;;;;;;;;;;;;;;;17.47;32.99;103166.88;5083019;28;829;-57
2022/03/19 04:10:31;;;;;;;;;;;;;;;17.54;32.76;103164.91;5093031;28;765;-57
2022/03/19 04:12:59;;;;;;;;;;;;;;;17.41;33.09;103166.69;5095587;28;889;-57
2022/03/19 04:15:25;;;;;;;;;;;;;;;17.09;33.59;103168.56;5095586;28;1143;-57
2022/03/19 04:17:50;;;;;;;;;;;;;;;16.86;33.82;103171.81;5092899;28;812;-57
2022/03/19 04:20:16;;;;;;;;;;;;;;;17.27;33.42;103167.84;5076323;28;1996;-58
2022/03/19 04:22:43;;;;;;;;;;;;;;;17.56;32.78;103169.16;5076572;28;871;-58
2022/03/19 04:25:09;;;;;;;;;;;;;;;17.41;32.75;103163.94;5068187;28;1265;-58
2022/03/19 04:27:35;;;;;;;;;;;;;;;17.12;33.28;103159.03;5071571;28;1185;-58
2022/03/19 04:30:00;;;;;;;;;;;;;;;16.85;33.69;103170.13;5093361;28;825;-58
2022/03/19 04:32:26;;;;;;;;;;;;;;;16.79;33.87;103157.22;5066655;28;1312;-58
2022/03/19 04:34:52;;;;;;;;;;;;;;;17.24;33.41;103166.38;5076021;28;997;-58
2022/03/19 04:37:17;;;;;;;;;;;;;;;17.44;32.81;103165.41;5075998;28;733;-58
2022/03/19 04:39:43;;;;;;;;;;;;;;;17.33;33.02;103161.44;5075986;28;1979;-56
2022/03/19 04:42:08;;;;;;;;;;;;;;;17.21;33.27;103160.47;5082621;28;879;-58
2022/03/19 04:44:34;;;;;;;;;;;;;;;16.87;33.89;103170.72;5095502;28;828;-57
2022/03/19 04:46:59;;;;;;;;;;;;;;;16.92;33.64;103168.22;5095529;28;815;-55
2022/03/19 04:49:25;;;;;;;;;;;;;;;17.20;33.34;103165.13;5079715;28;813;-56
2022/03/19 04:51:50;;;;;;;;;;;;;;;17.65;32.39;103161.47;5075064;28;821;-60
2022/03/19 04:54:17;;;;;;;;;;;;;;;17.32;32.95;103167.16;5075630;28;953;-58
2022/03/19 04:56:43;;;;;;;;;;;;;;;17.17;33.12;103170.22;5075358;28;772;-55
2022/03/19 04:59:13;;;;;;;;;;;;;;;16.96;33.43;103169.47;5108262;28;1909;-57
2022/03/19 05:01:39;;;;;;;;;;;;;;;16.88;33.83;103169.69;5077017;28;1406;-56
2022/03/19 05:04:05;;;;;;;;;;;;;;;17.03;33.28;103169.44;5086420;28;936;-52
2022/03/19 05:06:31;;;;;;;;;;;;;;;17.31;33.07;103180.09;5075250;28;900;-56
2022/03/19 05:11:40;;;;;;;;;;;;;;;17.74;32.32;103182.16;5078295;28;792;-57
2022/03/19 05:14:07;;;;;;;;;;;;;;;17.26;32.76;103190.88;5078202;28;823;-58
2022/03/19 05:16:32;;;;;;;;;;;;;;;16.92;33.45;103192.94;5060394;28;976;-57
2022/03/19 05:18:58;;;;;;;;;;;;;;;16.88;33.68;103192.53;5058824;28;1910;-55
2022/03/19 05:21:23;;;;;;;;;;;;;;;16.75;33.81;103190.63;5058361;28;742;-52
2022/03/19 05:23:49;;;;;;;;;;;;;;;18.26;31.28;103186.63;5058674;28;810;-55
2022/03/19 05:26:14;;;;;;;;;;;;;;;18.85;30.45;103180.72;5058966;28;885;-55
2022/03/19 05:28:41;;;;;;;;;;;;;;;19.35;29.47;103191.53;5058862;28;819;-56
2022/03/19 05:31:07;;;;;;;;;;;;;;;19.93;28.43;103192.78;5059012;28;776;-56
2022/03/19 05:36:17;;;;;;;;;;;;;;;18.09;31.54;103197.34;5058824;28;838;-52
2022/03/19 05:38:42;;;;;;;;;;;;;;;17.78;32.01;103194.38;5058137;28;1913;-53
2022/03/19 05:41:08;;;;;;;;;;;;;;;17.36;32.73;103185.78;5058308;28;846;-57
2022/03/19 05:43:33;;;;;;;;;;;;;;;17.17;33.21;103187.56;5058325;28;814;-57
2022/03/19 05:45:58;;;;;;;;;;;;;;;16.77;33.80;103182.19;5057620;28;797;-56
2022/03/19 05:48:24;;;;;;;;;;;;;;;16.76;33.92;103184.09;5061249;28;816;-56
2022/03/19 05:50:50;;;;;;;;;;;;;;;17.35;32.92;103186.84;5058411;28;831;-53
2022/03/19 05:53:16;;;;;;;;;;;;;;;18.05;31.67;103183.19;5058089;28;726;-55
2022/03/19 05:55:41;;;;;;;;;;;;;;;18.00;31.64;103180.28;5058124;28;1363;-56
2022/03/19 05:58:06;;;;;;;;;;;;;;;17.65;32.11;103188.13;5057917;28;887;-55
2022/03/19 06:00:32;;;;;;;;;;;;;;;17.10;32.87;103173.84;5057349;28;1905;-55
2022/03/19 06:02:57;;;;;;;;;;;;;;;17.01;32.97;103180.66;5058470;28;834;-56
2022/03/19 06:05:23;;;;;;;;;;;;;;;16.91;33.39;103172.88;5058458;28;837;-57
2022/03/19 06:07:48;;;;;;;;;;;;;;;16.96;33.31;103185.97;5058311;28;873;-57
2022/03/19 06:10:14;;;;;;;;;;;;;;;17.45;32.34;103181.69;5058404;28;777;-57
2022/03/19 06:12:40;;;;;;;;;;;;;;;17.78;31.75;103172.38;5056750;28;745;-57
2022/03/19 06:15:06;;;;;;;;;;;;;;;17.81;31.62;103182.09;5064267;28;999;-57
2022/03/19 06:17:31;;;;;;;;;;;;;;;17.18;32.69;103185.63;5077935;28;829;-57
2022/03/19 06:19:57;;;;;;;;;;;;;;;17.14;32.80;103188.00;5078041;28;1971;-58
2022/03/19 06:22:23;;;;;;;;;;;;;;;17.16;32.78;103193.28;5078021;28;754;-58
2022/03/19 06:24:48;;;;;;;;;;;;;;;17.52;32.25;103194.56;5077737;28;836;-58
2022/03/19 06:27:13;;;;;;;;;;;;;;;17.94;31.59;103194.94;5077575;28;833;-56
2022/03/19 06:29:39;;;;;;;;;;;;;;;17.85;31.32;103199.00;5077790;28;833;-57
2022/03/19 06:32:05;;;;;;;;;;;;;;;17.40;32.30;103189.78;5077166;28;860;-57
2022/03/19 06:34:32;;;;;;;;;;;;;;;17.15;32.64;103200.66;5077763;28;832;-57
2022/03/19 06:39:41;;;;;;;;;;;;;;;17.08;32.77;103194.34;5077560;28;1902;-57
2022/03/19 06:42:07;;;;;;;;;;;;;;;17.25;32.43;103200.19;5077688;28;1042;-57
2022/03/19 06:44:33;;;;;;;;;;;;;;;17.88;31.52;103215.91;5076952;28;876;-56
2022/03/19 06:46:59;;;;;;;;;;;;;;;17.91;31.40;103214.66;5077011;28;1215;-56
2022/03/19 06:49:26;;;;;;;;;;;;;;;17.63;31.81;103213.13;5076804;28;899;-55
2022/03/19 06:51:51;;;;;;;;;;;;;;;17.22;32.41;103218.00;5077739;28;827;-58
2022/03/19 06:54:16;;;;;;;;;;;;;;;17.18;32.61;103226.88;5077697;28;797;-58
2022/03/19 06:56:42;;;;;;;;;;;;;;;17.23;32.51;103229.84;5076876;28;901;-57
2022/03/19 06:59:07;;;;;;;;;;;;;;;17.78;31.50;103232.91;5076945;28;1902;-56
2022/03/19 07:01:36;;;;;;;;;;;;;;;17.81;31.46;103225.28;5077220;28;841;-56
2022/03/19 07:04:01;;;;;;;;;;;;;;;17.47;32.07;103227.41;5077082;28;884;-58
2022/03/19 07:06:27;;;;;;;;;;;;;;;17.15;32.45;103232.81;5077620;28;734;-56
2022/03/19 07:08:52;;;;;;;;;;;;;;;16.89;32.84;103229.94;5076556;28;813;-57
2022/03/19 07:11:18;;;;;;;;;;;;;;;17.03;32.79;103225.25;5076459;28;875;-57
2022/03/19 07:13:43;;;;;;;;;;;;;;;17.54;31.86;103226.28;5076888;28;955;-57
2022/03/19 07:16:08;;;;;;;;;;;;;;;17.94;30.90;103230.72;5076731;28;992;-57
2022/03/19 07:18:34;;;;;;;;;;;;;;;17.77;31.35;103230.41;5076195;28;1959;-57
2022/03/19 07:21:00;;;;;;;;;;;;;;;17.34;32.11;103226.38;5077141;28;814;-55
2022/03/19 07:23:25;;;;;;;;;;;;;;;16.87;32.84;103233.94;5076232;28;917;-56
2022/03/19 07:25:50;;;;;;;;;;;;;;;17.04;32.63;103235.19;5076471;28;826;-57
2022/03/19 07:28:17;;;;;;;;;;;;;;;17.05;32.77;103230.53;5076848;28;775;-57
2022/03/19 07:30:43;;;;;;;;;;;;;;;16.97;32.47;103236.25;5076278;28;836;-57
2022/03/19 07:33:08;;;;;;;;;;;;;;;17.14;32.32;103225.63;5076280;28;813;-58
2022/03/19 07:35:34;;;;;;;;;;;;;;;17.35;32.05;103241.84;5076564;28;888;-57
2022/03/19 07:38:02;;;;;;;;;;;;;;;17.68;31.43;103243.56;5076512;28;860;-57
2022/03/19 07:43:11;;;;;;;;;;;;;;;17.99;31.10;103238.31;5076455;28;781;-58
2022/03/19 07:45:37;;;;;;;;;;;;;;;17.47;31.61;103224.63;5076637;28;799;-57
2022/03/19 07:48:02;;;;;;;;;;;;;;;17.12;32.29;103234.09;5075640;28;956;-57
2022/03/19 07:50:28;;;;;;;;;;;;;;;16.97;32.55;103234.38;5078741;28;1194;-56
2022/03/19 07:52:53;;;;;;;;;;;;;;;16.98;32.58;103227.78;5075484;28;1186;-57
2022/03/19 07:55:19;;;;;;;;;;;;;;;17.27;31.91;103225.59;5076065;28;1272;-56
2022/03/19 07:57:44;;;;;;;;;;;;;;;17.45;31.75;103227.63;5077606;28;1218;-57
2022/03/19 08:00:12;;;;;;;;;;;;;;;17.84;31.22;103225.69;5076046;28;1909;-57
2022/03/19 08:02:40;;;;;;;;;;;;;;;17.90;30.89;103212.94;5071858;28;763;-56
2022/03/19 08:05:06;;;;;;;;;;;;;;;17.60;31.35;103221.81;5076886;28;825;-56
2022/03/19 08:07:32;;;;;;;;;;;;;;;17.16;32.25;103209.78;5075749;28;817;-57
2022/03/19 08:09:57;;;;;;;;;;;;;;;16.93;32.43;103224.88;5075832;28;1040;-57
2022/03/19 08:12:24;;;;;;;;;;;;;;;17.18;32.36;103215.88;5076504;28;890;-56
2022/03/19 08:14:49;;;;;;;;;;;;;;;17.65;31.50;103216.47;5075613;28;1041;-58
2022/03/19 08:17:15;;;;;;;;;;;;;;;17.75;31.20;103216.84;5076424;28;757;-55
2022/03/19 08:19:42;;;;;;;;;;;;;;;18.00;30.87;103217.97;5075813;28;1917;-58
2022/03/19 08:22:08;;;;;;;;;;;;;;;17.98;30.82;103214.59;5075241;28;1249;-58
2022/03/19 08:24:34;;;;;;;;;;;;;;;17.70;31.13;103208.41;5089423;28;1332;-57
2022/03/19 08:27:00;;;;;;;;;;;;;;;17.31;31.98;103201.25;5076947;28;1233;-57
2022/03/19 08:29:25;;;;;;;;;;;;;;;17.20;32.10;103211.03;5068910;28;904;-56
2022/03/19 08:31:51;;;;;;;;;;;;;;;17.03;32.19;103199.69;5077777;28;1374;-57
2022/03/19 08:34:16;;;;;;;;;;;;;;;16.98;32.35;103204.97;5075212;28;1115;-55
2022/03/19 08:36:42;;;;;;;;;;;;;;;17.03;32.23;103195.00;5077643;28;952;-57
2022/03/19 08:41:51;;;;;;;;;;;;;;;17.98;30.96;103190.69;5080326;28;1135;-57
2022/03/19 08:44:17;;;;;;;;;;;;;;;17.95;30.75;103189.22;5081029;28;1261;-57
2022/03/19 08:46:42;;;;;;;;;;;;;;;17.56;31.23;103187.56;5079315;28;1213;-58
2022/03/19 08:49:08;;;;;;;;;;;;;;;17.10;31.85;103182.09;5078742;28;1186;-57
2022/03/19 08:51:39;;;;;;;;;;;;;;;16.97;32.14;103187.66;5078640;28;1217;-57
2022/03/19 08:54:05;;;;;;;;;;;;;;;17.02;32.37;103196.06;5082194;28;1241;-57
2022/03/19 08:56:31;;;;;;;;;;;;;;;17.02;32.15;103198.81;5076413;28;1163;-59
2022/03/19 08:58:56;;;;;;;;;;;;;;;17.44;31.71;103202.00;5078726;28;1909;-58
2022/03/19 09:01:22;;;;;;;;;;;;;;;17.90;30.59;103189.00;5081621;28;1107;-58
2022/03/19 09:03:47;;;;;;;;;;;;;;;17.74;30.92;103206.03;5075700;28;1082;-58
2022/03/19 09:06:14;;;;;;;;;;;;;;;17.10;32.17;103206.81;5079061;28;816;-57
2022/03/19 09:08:43;;;;;;;;;;;;;;;17.19;31.94;103210.16;5069588;28;1209;-57
2022/03/19 09:11:08;;;;;;;;;;;;;;;16.85;32.57;103200.34;5061791;28;1145;-57
2022/03/19 09:13:36;;;;;;;;;;;;;;;17.08;32.01;103181.47;5063383;28;1300;-58
2022/03/19 09:16:03;;;;;;;;;;;;;;;17.44;31.34;103196.50;5063143;28;1251;-58
2022/03/19 09:18:28;;;;;;;;;;;;;;;17.72;31.00;103189.75;5065021;28;1910;-58
2022/03/19 09:20:53;;;;;;;;;;;;;;;17.34;31.49;103201.63;5062361;28;1304;-58
2022/03/19 09:23:19;;;;;;;;;;;;;;;17.06;32.24;103197.31;5063009;28;1114;-58
2022/03/19 09:25:44;;;;;;;;;;;;;;;17.01;32.09;103205.41;5064549;28;1431;-58
2022/03/19 09:28:10;;;;;;;;;;;;;;;16.97;32.40;103193.16;5066667;28;1320;-58
2022/03/19 09:30:35;;;;;;;;;;;;;;;17.20;31.82;103198.09;5062396;28;1169;-59
2022/03/19 09:33:01;;;;;;;;;;;;;;;17.55;31.32;103196.88;5063211;28;1313;-59
2022/03/19 09:35:26;;;;;;;;;;;;;;;17.79;30.95;103185.06;5062883;28;1380;-60
2022/03/19 09:37:52;;;;;;;;;;;;;;;17.99;30.51;103197.84;5065166;28;1399;-59
2022/03/19 09:40:17;;;;;;;;;;;;;;;18.04;30.33;103203.53;5062408;28;1902;-59
2022/03/19 09:42:50;;;;;;;;;;;;;;;17.77;30.84;103211.13;5061326;28;1292;-59
2022/03/19 09:45:18;;;;;;;;;;;;;;;17.23;32.00;103210.59;5068922;28;1134;-58
2022/03/19 09:47:44;;;;;;;;;;;;;;;16.98;32.11;103213.22;5061326;28;1297;-58
2022/03/19 09:50:09;;;;;;;;;;;;;;;17.03;32.24;103214.25;5062173;28;1336;-59
2022/03/19 09:52:38;;;;;;;;;;;;;;;17.38;31.80;103216.63;5062201;28;1391;-58
2022/03/19 09:55:03;;;;;;;;;;;;;;;17.85;30.91;103221.00;5067180;28;1309;-58
2022/03/19 09:57:29;;;;;;;;;;;;;;;18.03;30.54;103223.88;5062995;28;1082;-59
2022/03/19 09:59:54;;;;;;;;;;;;;;;18.18;30.53;103219.97;5060841;28;1875;-59
2022/03/19 10:02:20;;;;;;;;;;;;;;;18.19;30.47;103210.59;5063452;28;1348;-59
2022/03/19 10:04:45;;;;;;;;;;;;;;;17.73;31.09;103205.22;5096538;28;1562;-59
2022/03/19 10:09:56;;;;;;;;;;;;;;;17.18;31.89;103216.75;5062683;28;1213;-60
2022/03/19 10:12:22;;;;;;;;;;;;;;;17.10;32.08;103204.06;5061639;28;1328;-59
2022/03/19 10:14:51;;;;;;;;;;;;;;;17.27;31.71;103217.34;5063762;28;1213;-59
2022/03/19 10:17:30;;;;;;;;;;;;;;;17.88;30.66;103221.41;5061161;28;1328;-59
2022/03/19 10:20:13;;;;;;;;;;;;;;;18.05;30.60;103216.25;5063888;28;1917;-59
2022/03/19 10:22:39;;;;;;;;;;;;;;;18.10;30.56;103202.66;5060927;28;1295;-59
2022/03/19 10:25:08;;;;;;;;;;;;;;;17.94;30.80;103208.72;5061821;28;1343;-60
2022/03/19 10:27:34;;;;;;;;;;;;;;;17.48;31.16;103220.84;5063750;28;1389;-59
2022/03/19 10:30:04;;;;;;;;;;;;;;;17.13;32.09;103212.97;5061299;28;1327;-59
2022/03/19 10:32:29;;;;;;;;;;;;;;;17.17;31.85;103205.97;5061448;28;1402;-58
2022/03/19 10:34:55;;;;;;;;;;;;;;;17.14;31.90;103211.88;5072349;28;1040;-58
2022/03/19 10:37:34;;;;;;;;;;;;;;;17.12;32.15;103206.59;5077612;28;856;-57
2022/03/19 10:39:59;;;;;;;;;;;;;;;17.49;31.56;103211.50;5061921;28;1910;-60
2022/03/19 10:42:25;;;;;;;;;;;;;;;17.99;30.70;103206.09;5063575;28;1371;-57
2022/03/19 10:44:52;;;;;;;;;;;;;;;17.79;30.76;103201.59;5107841;27;1245;-57
2022/03/19 10:47:20;;;;;;;;;;;;;;;17.25;31.55;103201.06;5076880;28;1309;-56
2022/03/19 10:49:46;;;;;;;;;;;;;;;17.10;31.82;103204.06;5076217;28;1029;-57
2022/03/19 10:52:13;;;;;;;;;;;;;;;17.09;32.16;103199.63;5076882;28;1261;-57
2022/03/19 10:54:38;;;;;;;;;;;;;;;16.95;32.39;103198.00;5109901;27;1122;-58
2022/03/19 10:57:05;;;;;;;;;;;;;;;17.21;32.05;103202.56;5107053;27;1370;-59
2022/03/19 10:59:31;;;;;;;;;;;;;;;17.81;30.93;103184.84;5076095;28;1909;-58
2022/03/19 11:01:56;;;;;;;;;;;;;;;18.03;30.61;103190.00;5077075;28;1210;-57
2022/03/19 11:04:22;;;;;;;;;;;;;;;17.61;31.32;103182.22;5072840;28;1309;-60
2022/03/19 11:06:50;;;;;;;;;;;;;;;17.26;31.65;103183.50;5109045;27;1079;-57
2022/03/19 11:09:15;;;;;;;;;;;;;;;17.22;32.03;103173.16;5076497;28;1173;-58
2022/03/19 11:12:00;;;;;;;;;;;;;;;17.00;32.18;103173.47;5078098;28;1060;-58
2022/03/19 11:14:28;;;;;;;;;;;;;;;17.07;32.22;103178.94;5074886;28;1274;-59
2022/03/19 11:17:24;;;;;;;;;;;;;;;17.48;31.39;103176.81;5076838;28;1258;-57
2022/03/19 11:19:56;;;;;;;;;;;;;;;17.84;30.87;103156.88;5075929;28;1921;-59
2022/03/19 11:22:22;;;;;;;;;;;;;;;18.05;30.41;103155.66;5076644;28;1190;-58
2022/03/19 11:24:47;;;;;;;;;;;;;;;17.99;30.74;103151.03;5076539;28;827;-58
2022/03/19 11:27:13;;;;;;;;;;;;;;;17.45;31.31;103145.94;5076777;28;904;-58
2022/03/19 11:29:39;;;;;;;;;;;;;;;17.21;31.95;103143.97;5077221;28;742;-58
2022/03/19 11:32:06;;;;;;;;;;;;;;;16.93;32.54;103150.66;5108509;27;1143;-58
2022/03/19 11:34:44;;;;;;;;;;;;;;;17.21;32.16;103158.56;5076401;28;855;-58
2022/03/19 11:37:10;;;;;;;;;;;;;;;17.42;31.85;103148.28;5070118;28;758;-57
2022/03/19 11:39:35;;;;;;;;;;;;;;;17.94;30.88;103153.66;5076515;28;1913;-57
2022/03/19 11:42:01;;;;;;;;;;;;;;;18.30;30.14;103152.06;5076561;28;815;-58
2022/03/19 11:44:27;;;;;;;;;;;;;;;17.84;30.76;103154.13;5076600;28;800;-58
2022/03/19 11:46:56;;;;;;;;;;;;;;;17.45;31.65;103161.59;5077013;28;772;-58
2022/03/19 11:49:41;;;;;;;;;;;;;;;17.17;32.06;103164.72;5076065;28;853;-57
2022/03/19 11:52:06;;;;;;;;;;;;;;;17.03;32.40;103152.94;5076670;28;887;-58
2022/03/19 11:54:54;;;;;;;;;;;;;;;17.04;32.49;103141.75;5109447;28;757;-55
2022/03/19 11:57:20;;;;;;;;;;;;;;;17.37;31.70;103143.44;5076100;28;1950;-57
2022/03/19 11:59:45;;;;;;;;;;;;;;;17.96;30.76;103123.97;5076488;28;1917;-56
2022/03/19 12:02:12;;;;;;;;;;;;;;;18.08;30.61;103119.41;5076339;28;741;-57
2022/03/19 12:04:45;;;;;;;;;;;;;;;17.83;30.68;103124.91;5074299;28;1073;-59
2022/03/19 12:07:10;;;;;;;;;;;;;;;17.32;31.75;103121.28;5078682;28;1131;-59
2022/03/19 12:09:38;;;;;;;;;;;;;;;17.27;31.96;103129.34;5095625;28;899;-59
2022/03/19 12:12:13;;;;;;;;;;;;;;;17.08;32.19;103118.25;5099064;28;841;-58
2022/03/19 12:14:40;;;;;;;;;;;;;;;17.09;32.48;103125.41;5080717;28;1245;-59
2022/03/19 12:17:25;;;;;;;;;;;;;;;17.73;31.13;103108.91;5080420;28;766;-58
2022/03/19 12:20:04;;;;;;;;;;;;;;;18.10;30.67;103109.03;5075050;28;1914;-58
2022/03/19 12:22:35;;;;;;;;;;;;;;;18.21;30.49;103114.84;5079585;28;1103;-58
2022/03/19 12:25:01;;;;;;;;;;;;;;;17.98;30.80;103104.47;5080141;28;1214;-59
2022/03/19 12:27:26;;;;;;;;;;;;;;;17.70;31.17;103114.84;5079569;28;1309;-58
2022/03/19 12:29:52;;;;;;;;;;;;;;;17.55;31.34;103093.16;5078890;28;953;-58
2022/03/19 12:32:17;;;;;;;;;;;;;;;17.23;31.90;103093.19;5079607;28;1052;-60
2022/03/19 12:34:44;;;;;;;;;;;;;;;17.83;31.04;103094.63;5078672;28;1099;-59
2022/03/19 12:37:09;;;;;;;;;;;;;;;17.81;30.92;103098.66;5078980;28;1102;-60
2022/03/19 12:39:35;;;;;;;;;;;;;;;17.36;31.62;103091.41;5079693;28;1930;-58
2022/03/19 12:42:01;;;;;;;;;;;;;;;17.27;32.15;103088.94;5078579;28;1084;-57
2022/03/19 12:44:28;;;;;;;;;;;;;;;17.06;32.09;103059.88;5079247;28;1316;-57
2022/03/19 12:46:54;;;;;;;;;;;;;;;16.91;32.47;103089.56;5080818;28;1189;-58
2022/03/19 12:49:19;;;;;;;;;;;;;;;17.10;32.19;103104.28;5078260;28;1234;-58
2022/03/19 12:51:46;;;;;;;;;;;;;;;17.65;31.29;103094.59;5079443;28;1210;-59
2022/03/19 12:54:18;;;;;;;;;;;;;;;17.90;30.80;103087.16;5079255;28;1281;-59
2022/03/19 12:56:44;;;;;;;;;;;;;;;18.33;30.39;103098.41;5078849;28;1309;-58
2022/03/19 12:59:15;;;;;;;;;;;;;;;17.74;30.89;103105.09;5079204;28;1968;-58
2022/03/19 13:01:41;;;;;;;;;;;;;;;17.38;31.71;103097.56;5079473;28;1304;-58
2022/03/19 13:04:06;;;;;;;;;;;;;;;17.28;31.84;103095.28;5077980;28;1361;-59
2022/03/19 13:06:36;;;;;;;;;;;;;;;17.17;32.03;103101.50;5078802;28;1154;-59
2022/03/19 13:09:07;;;;;;;;;;;;;;;17.12;32.25;103095.81;5078467;28;1036;-58